Time;durP1;ratioP1;P1;durP2;ratioP2;P2;SDS_P1;SDS_P2;PMS_P1;PMS_P2;Temp;Humidity;BMP_temperature;BMP_pressure;BME280_temperature;BME280_humidity;BME280_pressure;Samples;Min_cycle;Max_cycle;Signal;HPM_P1;HPM_P2
2023/02/06 00:00:20;;;;;;;;;;;;;;;-0.96;100.00;101056.30;67983;1275;1016649;-61
2023/02/06 00:03:42;;;;;;;;;;;;;;;-1.19;100.00;101061.30;68035;1275;1015913;-61
2023/02/06 00:06:45;;;;;;;;;;;;;;;-1.15;100.00;101068.27;68045;1275;1016401;-61
2023/02/06 00:09:47;;;;;;;;;;;;;;;-1.21;100.00;101068.81;68052;1275;1015930;-61
2023/02/06 00:12:50;;;;;;;;;;;;;;;-1.27;100.00;101064.91;67775;1275;1308535;-60
2023/02/06 00:15:52;;;;;;;;;;;;;;;-1.30;100.00;101060.71;68020;1275;1016502;-58
2023/02/06 00:18:54;;;;;;;;;;;;;;;-1.17;100.00;101058.60;68027;1275;1016459;-59
2023/02/06 00:21:57;;;;;;;;;;;;;;;-1.01;100.00;101048.64;68048;1275;1016486;-59
2023/02/06 00:24:59;;;;;;;;;;;;;;;-0.97;100.00;101048.23;68075;1275;1016801;-59
2023/02/06 00:28:02;;;;;;;;;;;;;;;-1.01;100.00;101048.46;67994;1275;1016493;-59
2023/02/06 00:31:04;;;;;;;;;;;;;;;-1.06;100.00;101047.84;68035;1275;1016155;-59
2023/02/06 00:34:07;;;;;;;;;;;;;;;-0.96;100.00;101050.30;67992;1275;1015969;-59
2023/02/06 00:37:09;;;;;;;;;;;;;;;-0.90;100.00;101051.46;68036;1275;1017414;-59
2023/02/06 00:40:11;;;;;;;;;;;;;;;-0.89;100.00;101052.50;68059;1275;1016446;-59
2023/02/06 00:43:14;;;;;;;;;;;;;;;-0.88;100.00;101049.79;68012;1275;1016220;-59
2023/02/06 00:46:16;;;;;;;;;;;;;;;-0.91;100.00;101041.83;67985;1275;1016471;-59
2023/02/06 00:49:19;;;;;;;;;;;;;;;-1.10;100.00;101036.61;68006;1275;1015980;-59
2023/02/06 00:52:22;;;;;;;;;;;;;;;-1.16;100.00;101041.45;68024;1275;1016680;-59
2023/02/06 00:55:24;;;;;;;;;;;;;;;-1.12;100.00;101048.23;68026;1275;1016394;-59
2023/02/06 00:58:26;;;;;;;;;;;;;;;-1.22;100.00;101050.25;67994;1275;1016426;-59
2023/02/06 01:01:29;;;;;;;;;;;;;;;-1.32;100.00;101050.37;67997;1275;1016978;-59
2023/02/06 01:04:31;;;;;;;;;;;;;;;-1.26;100.00;101044.83;68058;1275;1017915;-59
2023/02/06 01:07:34;;;;;;;;;;;;;;;-1.16;100.00;101034.42;68067;1275;1016243;-59
2023/02/06 01:10:36;;;;;;;;;;;;;;;-0.98;100.00;101035.13;68017;1275;1017212;-59
2023/02/06 01:13:38;;;;;;;;;;;;;;;-1.05;100.00;101039.80;67985;1275;1015750;-59
2023/02/06 01:16:41;;;;;;;;;;;;;;;-1.19;100.00;101042.26;68000;1275;1016147;-59
2023/02/06 01:19:43;;;;;;;;;;;;;;;-1.34;100.00;101042.77;68024;1275;1016388;-59
2023/02/06 01:22:46;;;;;;;;;;;;;;;-1.38;100.00;101041.30;68049;1275;1016426;-59
2023/02/06 01:25:48;;;;;;;;;;;;;;;-1.32;100.00;101034.23;68091;1275;1017206;-59
2023/02/06 01:28:50;;;;;;;;;;;;;;;-1.16;100.00;101028.23;67999;1275;1016538;-59
2023/02/06 01:31:53;;;;;;;;;;;;;;;-1.00;100.00;101035.27;68007;1275;1016304;-59
2023/02/06 01:34:55;;;;;;;;;;;;;;;-0.78;100.00;101034.37;68051;1275;1018784;-59
2023/02/06 01:37:58;;;;;;;;;;;;;;;-0.67;100.00;101026.00;68086;1275;1017905;-59
2023/02/06 01:41:00;;;;;;;;;;;;;;;-0.60;100.00;101028.54;68049;1275;1016273;-59
2023/02/06 01:44:03;;;;;;;;;;;;;;;-0.48;100.00;101028.59;68011;1275;1016206;-59
2023/02/06 01:47:05;;;;;;;;;;;;;;;-0.41;100.00;101023.23;67975;1275;1016654;-59
2023/02/06 01:50:07;;;;;;;;;;;;;;;-0.41;100.00;101020.65;67992;1275;1016363;-59
2023/02/06 01:53:10;;;;;;;;;;;;;;;-0.48;100.00;101022.94;68069;1275;1016682;-59
2023/02/06 01:56:12;;;;;;;;;;;;;;;-0.56;100.00;101016.23;67995;1275;1016399;-59
2023/02/06 01:59:15;;;;;;;;;;;;;;;-0.54;100.00;101012.50;68017;1275;1016469;-59
2023/02/06 02:02:17;;;;;;;;;;;;;;;-0.50;100.00;101007.42;67940;1275;1015948;-59
2023/02/06 02:05:19;;;;;;;;;;;;;;;-0.41;100.00;100994.01;68040;1275;1016508;-59
2023/02/06 02:08:22;;;;;;;;;;;;;;;-0.45;100.00;100996.52;68075;1275;1016211;-60
2023/02/06 02:11:24;;;;;;;;;;;;;;;-0.52;100.00;100997.26;68036;1275;1016436;-58
2023/02/06 02:14:27;;;;;;;;;;;;;;;-0.76;100.00;100997.29;68027;1275;1016409;-59
2023/02/06 02:17:29;;;;;;;;;;;;;;;-1.05;100.00;101001.34;68024;1275;1016476;-59
2023/02/06 02:20:31;;;;;;;;;;;;;;;-1.02;100.00;100995.23;68023;1275;1016235;-59
2023/02/06 02:23:34;;;;;;;;;;;;;;;-0.89;100.00;100998.94;68062;1275;1018137;-59
2023/02/06 02:26:36;;;;;;;;;;;;;;;-0.82;100.00;100997.34;68035;1275;1016131;-59
2023/02/06 02:29:39;;;;;;;;;;;;;;;-0.90;100.00;100996.15;68062;1275;1016270;-58
2023/02/06 02:32:41;;;;;;;;;;;;;;;-0.96;100.00;100986.58;68030;1275;1016215;-59
2023/02/06 02:35:44;;;;;;;;;;;;;;;-1.02;100.00;100985.42;68059;1275;1016443;-59
2023/02/06 02:38:46;;;;;;;;;;;;;;;-1.01;100.00;100975.83;68074;1275;1016458;-59
2023/02/06 02:41:49;;;;;;;;;;;;;;;-1.06;100.00;100967.83;68036;1275;1016457;-59
2023/02/06 02:44:51;;;;;;;;;;;;;;;-1.10;100.00;100961.90;67984;1275;1015979;-59
2023/02/06 02:47:54;;;;;;;;;;;;;;;-1.02;100.00;100966.20;67995;1275;1016417;-59
2023/02/06 02:50:56;;;;;;;;;;;;;;;-0.96;100.00;100967.36;68054;1275;1016439;-59
2023/02/06 02:53:59;;;;;;;;;;;;;;;-0.95;100.00;100967.89;68037;1275;1016684;-58
2023/02/06 02:57:01;;;;;;;;;;;;;;;-0.96;100.00;100974.73;68033;1275;1016432;-59
2023/02/06 03:00:04;;;;;;;;;;;;;;;-0.91;100.00;100970.36;68008;1275;1016444;-59
2023/02/06 03:03:07;;;;;;;;;;;;;;;-0.84;100.00;100973.24;68023;1275;1016019;-59
2023/02/06 03:06:09;;;;;;;;;;;;;;;-0.94;100.00;100977.70;68047;1275;1016635;-59
2023/02/06 03:09:11;;;;;;;;;;;;;;;-0.97;100.00;100979.52;67987;1275;1018436;-59
2023/02/06 03:12:14;;;;;;;;;;;;;;;-0.89;100.00;100982.27;67950;1275;1017160;-59
2023/02/06 03:15:16;;;;;;;;;;;;;;;-0.96;100.00;100974.73;68023;1275;1016266;-59
2023/02/06 03:18:18;;;;;;;;;;;;;;;-1.00;100.00;100978.27;68066;1275;1016199;-59
2023/02/06 03:21:21;;;;;;;;;;;;;;;-0.97;100.00;100983.45;68066;1275;1018835;-59
2023/02/06 03:24:23;;;;;;;;;;;;;;;-1.05;100.00;100986.73;68022;1275;1016337;-59
2023/02/06 03:27:26;;;;;;;;;;;;;;;-1.09;100.00;100987.20;67985;1275;1016305;-59
2023/02/06 03:30:28;;;;;;;;;;;;;;;-1.17;100.00;100997.64;67997;1275;1016388;-59
2023/02/06 03:33:31;;;;;;;;;;;;;;;-1.32;100.00;100998.52;68006;1275;1016476;-59
2023/02/06 03:36:33;;;;;;;;;;;;;;;-1.48;100.00;101010.17;68052;1275;1016491;-59
2023/02/06 03:39:35;;;;;;;;;;;;;;;-1.74;100.00;101008.36;68075;1275;1016168;-59
2023/02/06 03:42:38;;;;;;;;;;;;;;;-1.97;100.00;101005.23;67989;1275;1016676;-59
2023/02/06 03:45:40;;;;;;;;;;;;;;;-2.05;100.00;101007.41;68011;1275;1016643;-59
2023/02/06 03:48:42;;;;;;;;;;;;;;;-2.03;100.00;101010.58;67953;1275;1016331;-59
2023/02/06 03:51:45;;;;;;;;;;;;;;;-2.02;100.00;101007.33;68033;1275;1016254;-59
2023/02/06 03:54:47;;;;;;;;;;;;;;;-1.98;100.00;101002.63;67966;1275;1016301;-59
2023/02/06 03:57:50;;;;;;;;;;;;;;;-1.87;100.00;101000.70;68046;1275;1017223;-59
2023/02/06 04:00:52;;;;;;;;;;;;;;;-1.57;100.00;100996.58;68004;1275;1017225;-59
2023/02/06 04:03:55;;;;;;;;;;;;;;;-1.37;100.00;100993.61;68011;1275;1016409;-59
2023/02/06 04:06:57;;;;;;;;;;;;;;;-1.14;100.00;100995.82;67977;1275;1016221;-60
2023/02/06 04:09:59;;;;;;;;;;;;;;;-1.00;100.00;100995.61;68022;1275;1016584;-60
2023/02/06 04:13:02;;;;;;;;;;;;;;;-1.02;100.00;100995.23;68050;1275;1015977;-59
2023/02/06 04:16:04;;;;;;;;;;;;;;;-1.04;100.00;101000.33;68021;1275;1016209;-59
2023/02/06 04:19:06;;;;;;;;;;;;;;;-1.29;100.00;101000.48;67989;1275;1016579;-59
2023/02/06 04:22:09;;;;;;;;;;;;;;;-1.49;100.00;100999.88;67993;1275;1016357;-59
2023/02/06 04:25:11;;;;;;;;;;;;;;;-1.74;100.00;100998.25;68001;1275;1016104;-59
2023/02/06 04:28:14;;;;;;;;;;;;;;;-1.93;100.00;100990.40;68056;1275;1016473;-59
2023/02/06 04:31:16;;;;;;;;;;;;;;;-2.09;100.00;100992.07;68032;1275;1018403;-59
2023/02/06 04:34:18;;;;;;;;;;;;;;;-2.23;100.00;100992.05;68011;1275;1016135;-58
2023/02/06 04:37:21;;;;;;;;;;;;;;;-2.34;100.00;100990.77;68005;1275;1016722;-59
2023/02/06 04:40:23;;;;;;;;;;;;;;;-2.37;100.00;100983.81;67999;1275;1016456;-59
2023/02/06 04:43:26;;;;;;;;;;;;;;;-2.41;100.00;100987.13;68053;1275;1016421;-59
2023/02/06 04:46:28;;;;;;;;;;;;;;;-2.33;100.00;100980.84;68058;1275;1016406;-59
2023/02/06 04:49:31;;;;;;;;;;;;;;;-2.11;100.00;100977.29;68069;1275;1016451;-59
2023/02/06 04:52:33;;;;;;;;;;;;;;;-1.88;100.00;100979.56;68021;1275;1016340;-59
2023/02/06 04:55:35;;;;;;;;;;;;;;;-1.64;100.00;100977.05;68026;1275;1016467;-59
2023/02/06 04:58:38;;;;;;;;;;;;;;;-1.37;100.00;100974.39;68045;1275;1016396;-59
2023/02/06 05:01:40;;;;;;;;;;;;;;;-1.25;100.00;100979.11;68028;1275;1016401;-59
2023/02/06 05:04:43;;;;;;;;;;;;;;;-1.22;100.00;100976.59;68056;1275;1016374;-59
2023/02/06 05:07:45;;;;;;;;;;;;;;;-1.28;100.00;100977.52;67963;1275;1016157;-59
2023/02/06 05:10:47;;;;;;;;;;;;;;;-1.26;100.00;100978.59;68039;1275;1016387;-59
2023/02/06 05:13:50;;;;;;;;;;;;;;;-1.15;100.00;100980.01;68020;1275;1016007;-59
2023/02/06 05:16:52;;;;;;;;;;;;;;;-1.21;100.00;100979.02;68046;1275;1015924;-59
2023/02/06 05:19:55;;;;;;;;;;;;;;;-1.39;100.00;100986.17;68058;1275;1016382;-59
2023/02/06 05:22:57;;;;;;;;;;;;;;;-1.64;100.00;100986.28;67988;1275;1016456;-59
2023/02/06 05:26:00;;;;;;;;;;;;;;;-1.63;100.00;100985.30;68002;1275;1016515;-58
2023/02/06 05:29:02;;;;;;;;;;;;;;;-1.60;100.00;100990.52;67998;1275;1016348;-59
2023/02/06 05:32:04;;;;;;;;;;;;;;;-1.39;100.00;100987.04;68064;1275;1016296;-59
2023/02/06 05:35:07;;;;;;;;;;;;;;;-1.31;100.00;100986.52;68060;1275;1016218;-59
2023/02/06 05:38:09;;;;;;;;;;;;;;;-1.36;100.00;100986.42;68030;1275;1017400;-59
2023/02/06 05:41:12;;;;;;;;;;;;;;;-1.19;100.00;100983.88;67990;1275;1016670;-59
2023/02/06 05:44:14;;;;;;;;;;;;;;;-1.11;100.00;100987.14;68011;1275;1016557;-59
2023/02/06 05:47:16;;;;;;;;;;;;;;;-1.23;100.00;100988.77;68050;1275;1018025;-59
2023/02/06 05:50:19;;;;;;;;;;;;;;;-1.35;100.00;100988.84;68072;1275;1016469;-59
2023/02/06 05:53:21;;;;;;;;;;;;;;;-1.45;100.00;100997.38;68043;1275;1016273;-59
2023/02/06 05:56:24;;;;;;;;;;;;;;;-1.36;100.00;101000.33;67990;1275;1016408;-59
2023/02/06 05:59:26;;;;;;;;;;;;;;;-1.28;100.00;101000.50;68004;1275;1016141;-59
2023/02/06 06:02:29;;;;;;;;;;;;;;;-1.51;100.00;101001.02;68060;1275;1016673;-59
2023/02/06 06:05:31;;;;;;;;;;;;;;;-1.78;100.00;101005.55;68065;1275;1016234;-59
2023/02/06 06:08:34;;;;;;;;;;;;;;;-1.94;100.00;101013.54;68041;1275;1016186;-59
2023/02/06 06:11:36;;;;;;;;;;;;;;;-2.01;100.00;101011.80;67960;1275;1016337;-59
2023/02/06 06:14:38;;;;;;;;;;;;;;;-2.05;100.00;101009.66;68021;1275;1016393;-59
2023/02/06 06:17:41;;;;;;;;;;;;;;;-2.06;100.00;101008.60;68050;1275;1016669;-59
2023/02/06 06:20:43;;;;;;;;;;;;;;;-2.00;100.00;101006.18;68044;1275;1016317;-59
2023/02/06 06:23:46;;;;;;;;;;;;;;;-1.83;100.00;101009.19;68006;1275;1018376;-59
2023/02/06 06:26:48;;;;;;;;;;;;;;;-1.78;100.00;101007.77;67978;1275;1016538;-59
2023/02/06 06:29:51;;;;;;;;;;;;;;;-1.91;100.00;101007.95;67997;1275;1019622;-59
2023/02/06 06:32:53;;;;;;;;;;;;;;;-1.97;100.00;101009.52;67998;1275;1016404;-59
2023/02/06 06:35:55;;;;;;;;;;;;;;;-2.02;100.00;101005.79;68071;1275;1016406;-59
2023/02/06 06:38:58;;;;;;;;;;;;;;;-2.11;100.00;101005.73;68038;1275;1016293;-59
2023/02/06 06:42:03;;;;;;;;;;;;;;;-2.16;100.00;101003.39;67987;1275;1016416;-59
2023/02/06 06:45:05;;;;;;;;;;;;;;;-2.15;100.00;101001.71;68057;1275;1019919;-59
2023/02/06 06:48:08;;;;;;;;;;;;;;;-2.20;100.00;101004.50;68075;1275;1016509;-59
2023/02/06 06:51:10;;;;;;;;;;;;;;;-2.24;100.00;101005.24;68012;1275;1016124;-59
2023/02/06 06:54:14;;;;;;;;;;;;;;;-2.35;100.00;101009.06;67988;1275;1016588;-59
2023/02/06 06:57:16;;;;;;;;;;;;;;;-2.34;100.00;101014.39;68005;1275;1018715;-59
2023/02/06 07:00:18;;;;;;;;;;;;;;;-2.27;100.00;101013.20;68030;1275;1016021;-59
2023/02/06 07:03:21;;;;;;;;;;;;;;;-2.16;100.00;101010.42;67974;1275;1017899;-59
2023/02/06 07:06:23;;;;;;;;;;;;;;;-1.92;100.00;101010.30;67981;1275;1016314;-59
2023/02/06 07:09:26;;;;;;;;;;;;;;;-1.72;100.00;101006.02;67985;1275;1016584;-59
2023/02/06 07:12:28;;;;;;;;;;;;;;;-1.60;100.00;101008.34;68027;1275;1018631;-59
2023/02/06 07:15:31;;;;;;;;;;;;;;;-1.50;100.00;101014.06;68007;1275;1016369;-59
2023/02/06 07:18:33;;;;;;;;;;;;;;;-1.43;100.00;101011.84;67999;1275;1016324;-59
2023/02/06 07:21:36;;;;;;;;;;;;;;;-1.32;100.00;101017.41;68030;1275;1016394;-59
2023/02/06 07:24:38;;;;;;;;;;;;;;;-1.31;100.00;101019.14;68055;1275;1016744;-59
2023/02/06 07:27:40;;;;;;;;;;;;;;;-1.14;100.00;101019.17;68022;1275;1019298;-59
2023/02/06 07:30:43;;;;;;;;;;;;;;;-0.94;100.00;101021.48;67963;1275;1016500;-59
2023/02/06 07:33:45;;;;;;;;;;;;;;;-0.79;100.00;101015.61;68014;1275;1016253;-59
2023/02/06 07:36:47;;;;;;;;;;;;;;;-0.67;100.00;101016.89;68013;1275;1016242;-58
2023/02/06 07:39:50;;;;;;;;;;;;;;;-0.51;100.00;101012.39;68071;1275;1016417;-59
2023/02/06 07:42:52;;;;;;;;;;;;;;;-0.27;100.00;101013.34;68037;1275;1016953;-59
2023/02/06 07:45:55;;;;;;;;;;;;;;;-0.26;100.00;101019.38;68004;1275;1016241;-59
2023/02/06 07:48:57;;;;;;;;;;;;;;;-0.00;100.00;101023.63;68000;1275;1016478;-59
2023/02/06 07:52:00;;;;;;;;;;;;;;;0.32;100.00;101024.16;68057;1275;1016615;-59
2023/02/06 07:55:02;;;;;;;;;;;;;;;0.62;100.00;101025.30;68063;1275;1016495;-59
2023/02/06 07:58:05;;;;;;;;;;;;;;;0.89;100.00;101020.53;68024;1275;1016401;-59
2023/02/06 08:01:07;;;;;;;;;;;;;;;1.18;100.00;101022.63;67995;1275;1015794;-59
2023/02/06 08:04:09;;;;;;;;;;;;;;;1.12;100.00;101022.73;68024;1275;1016424;-59
2023/02/06 08:07:13;;;;;;;;;;;;;;;0.88;100.00;101020.34;68011;1275;1016082;-59
2023/02/06 08:10:16;;;;;;;;;;;;;;;0.80;100.00;101015.75;68056;1275;1016256;-59
2023/02/06 08:13:18;;;;;;;;;;;;;;;0.88;100.00;101016.20;68027;1275;1018779;-59
2023/02/06 08:16:21;;;;;;;;;;;;;;;0.88;100.00;101020.17;68019;1275;1016178;-59
2023/02/06 08:19:23;;;;;;;;;;;;;;;1.28;100.00;101016.20;67988;1275;1016302;-59
2023/02/06 08:22:26;;;;;;;;;;;;;;;1.53;100.00;101017.86;68029;1275;1015776;-59
2023/02/06 08:25:28;;;;;;;;;;;;;;;1.73;100.00;101011.53;68054;1275;1015701;-59
2023/02/06 08:28:31;;;;;;;;;;;;;;;1.76;100.00;101014.83;67982;1275;1018187;-59
2023/02/06 08:31:33;;;;;;;;;;;;;;;1.88;100.00;101017.02;67988;1275;1016152;-59
2023/02/06 08:34:36;;;;;;;;;;;;;;;2.17;100.00;101023.15;68010;1275;1016271;-59
2023/02/06 08:37:39;;;;;;;;;;;;;;;2.33;100.00;101025.19;68049;1275;1016310;-59
2023/02/06 08:40:42;;;;;;;;;;;;;;;2.54;100.00;101031.73;67967;1275;1016491;-59
2023/02/06 08:43:44;;;;;;;;;;;;;;;2.75;100.00;101024.79;68020;1275;1016296;-59
2023/02/06 08:46:47;;;;;;;;;;;;;;;2.91;100.00;101027.82;68032;1275;1015849;-59
2023/02/06 08:49:49;;;;;;;;;;;;;;;3.23;100.00;101025.55;68037;1275;1016952;-59
2023/02/06 08:52:52;;;;;;;;;;;;;;;3.58;100.00;101026.88;67957;1275;1016296;-59
2023/02/06 08:55:54;;;;;;;;;;;;;;;3.64;100.00;101028.12;68013;1275;1018137;-59
2023/02/06 08:58:58;;;;;;;;;;;;;;;3.70;100.00;101030.39;68036;1275;1016457;-59
2023/02/06 09:02:00;;;;;;;;;;;;;;;3.67;100.00;101032.45;67987;1275;1016314;-59
2023/02/06 09:05:03;;;;;;;;;;;;;;;3.84;100.00;101036.99;68011;1275;1018937;-59
2023/02/06 09:08:06;;;;;;;;;;;;;;;3.97;100.00;101041.34;67988;1275;1016402;-59
2023/02/06 09:11:08;;;;;;;;;;;;;;;3.74;100.00;101041.65;67994;1275;1016404;-59
2023/02/06 09:14:10;;;;;;;;;;;;;;;3.57;100.00;101048.17;67994;1275;1016333;-59
2023/02/06 09:17:13;;;;;;;;;;;;;;;3.51;100.00;101043.48;68041;1275;1016326;-59
2023/02/06 09:20:15;;;;;;;;;;;;;;;3.54;100.00;101042.63;68049;1275;1016385;-59
2023/02/06 09:23:17;;;;;;;;;;;;;;;3.55;100.00;101047.13;68005;1275;1016272;-59
2023/02/06 09:26:20;;;;;;;;;;;;;;;3.84;100.00;101047.02;67969;1275;1016420;-59
2023/02/06 09:29:22;;;;;;;;;;;;;;;4.34;100.00;101049.34;67995;1275;1016468;-59
2023/02/06 09:32:25;;;;;;;;;;;;;;;4.71;100.00;101050.88;68013;1275;1016132;-59
2023/02/06 09:35:27;;;;;;;;;;;;;;;5.10;100.00;101046.98;68058;1275;1016372;-59
2023/02/06 09:38:30;;;;;;;;;;;;;;;5.22;100.00;101043.29;67995;1275;1018177;-59
2023/02/06 09:41:32;;;;;;;;;;;;;;;5.34;100.00;101043.26;67977;1275;1017967;-59
2023/02/06 09:44:35;;;;;;;;;;;;;;;5.54;100.00;101044.03;67982;1275;1016371;-59
2023/02/06 09:47:37;;;;;;;;;;;;;;;4.98;100.00;101048.74;68063;1275;1016395;-59
2023/02/06 09:50:39;;;;;;;;;;;;;;;4.95;100.00;101043.90;68002;1275;1016324;-59
2023/02/06 09:53:42;;;;;;;;;;;;;;;4.72;98.70;101043.94;68029;1275;1016288;-59
2023/02/06 09:56:44;;;;;;;;;;;;;;;4.73;100.00;101041.00;67956;1275;1016462;-59
2023/02/06 09:59:47;;;;;;;;;;;;;;;5.04;99.99;101040.06;67979;1275;1016535;-59
2023/02/06 10:02:49;;;;;;;;;;;;;;;5.12;99.95;101042.46;68007;1275;1016062;-59
2023/02/06 10:05:52;;;;;;;;;;;;;;;4.97;98.08;101045.11;67985;1275;1016224;-59
2023/02/06 10:08:54;;;;;;;;;;;;;;;4.54;91.08;101051.40;67975;1275;1016470;-59
2023/02/06 10:11:57;;;;;;;;;;;;;;;4.24;93.08;101055.05;67966;1275;1016472;-59
2023/02/06 10:14:59;;;;;;;;;;;;;;;4.28;95.10;101046.74;68003;1275;1016234;-59
2023/02/06 10:18:01;;;;;;;;;;;;;;;4.39;94.71;101045.70;67969;1275;1016443;-59
2023/02/06 10:21:05;;;;;;;;;;;;;;;4.56;95.72;101042.74;67953;1275;1016074;-60
2023/02/06 10:24:07;;;;;;;;;;;;;;;4.78;95.11;101036.31;67946;1275;1016272;-59
2023/02/06 10:27:09;;;;;;;;;;;;;;;4.93;93.75;101037.14;67972;1273;1019385;-59
2023/02/06 10:30:12;;;;;;;;;;;;;;;4.93;93.09;101041.82;68002;1275;1016413;-59
2023/02/06 10:33:14;;;;;;;;;;;;;;;5.14;93.24;101039.85;68013;1275;1016198;-59
2023/02/06 10:36:17;;;;;;;;;;;;;;;5.21;91.51;101041.74;67949;1275;1016152;-60
2023/02/06 10:39:19;;;;;;;;;;;;;;;5.32;90.93;101041.17;67929;1275;1018398;-59
2023/02/06 10:42:22;;;;;;;;;;;;;;;5.21;87.94;101038.27;68018;1275;1017718;-59
2023/02/06 10:45:24;;;;;;;;;;;;;;;4.81;86.77;101036.83;67979;1275;1018894;-59
2023/02/06 10:48:28;;;;;;;;;;;;;;;4.59;87.43;101039.63;67998;1275;1015768;-59
2023/02/06 10:51:31;;;;;;;;;;;;;;;4.32;86.65;101037.04;67957;1275;1016819;-60
2023/02/06 10:54:33;;;;;;;;;;;;;;;4.36;90.01;101031.67;67942;1275;1016560;-59
2023/02/06 10:57:35;;;;;;;;;;;;;;;4.68;89.84;101030.95;67962;1275;1016319;-59
2023/02/06 11:00:38;;;;;;;;;;;;;;;4.83;87.33;101027.99;67972;1275;1016415;-59
2023/02/06 11:03:40;;;;;;;;;;;;;;;4.94;88.79;101031.94;68017;1275;1016643;-59
2023/02/06 11:06:45;;;;;;;;;;;;;;;5.17;87.73;101025.45;67986;1275;1016193;-59
2023/02/06 11:09:48;;;;;;;;;;;;;;;5.63;88.02;101026.81;67969;1275;1016569;-59
2023/02/06 11:12:50;;;;;;;;;;;;;;;5.56;84.66;101027.53;68026;1275;1016372;-59
2023/02/06 11:15:53;;;;;;;;;;;;;;;5.18;84.40;101020.08;67969;1275;1016204;-59
2023/02/06 11:18:55;;;;;;;;;;;;;;;5.35;85.14;101019.48;67968;1275;1016877;-59
2023/02/06 11:21:57;;;;;;;;;;;;;;;5.95;85.47;101016.74;67950;1275;1016382;-59
2023/02/06 11:25:00;;;;;;;;;;;;;;;5.91;84.55;101018.83;67962;1275;1016490;-59
2023/02/06 11:28:04;;;;;;;;;;;;;;;6.25;85.84;101020.34;68018;1275;1016467;-60
2023/02/06 11:31:07;;;;;;;;;;;;;;;6.89;86.18;101015.38;67952;1275;1015881;-59
2023/02/06 11:34:10;;;;;;;;;;;;;;;7.35;84.26;101015.71;67955;1275;1016383;-59
2023/02/06 11:37:12;;;;;;;;;;;;;;;7.58;81.17;101018.39;68001;1275;1016258;-59
2023/02/06 11:40:15;;;;;;;;;;;;;;;7.25;65.66;101020.36;68003;1275;1016537;-59
2023/02/06 11:43:17;;;;;;;;;;;;;;;6.64;62.95;101016.35;67977;1275;1016513;-59
2023/02/06 11:46:20;;;;;;;;;;;;;;;6.30;66.27;101005.70;67947;1275;1015705;-59
2023/02/06 11:49:22;;;;;;;;;;;;;;;5.92;67.47;101000.07;68002;1275;1016479;-60
2023/02/06 11:52:24;;;;;;;;;;;;;;;6.10;67.40;101000.98;67990;1275;1016428;-59
2023/02/06 11:55:27;;;;;;;;;;;;;;;6.32;67.79;100993.18;68004;1275;1016320;-60
2023/02/06 11:58:29;;;;;;;;;;;;;;;6.07;65.36;100994.07;67955;1275;1016227;-59
2023/02/06 12:01:32;;;;;;;;;;;;;;;6.15;66.54;100986.38;67950;1275;1016421;-59
2023/02/06 12:04:34;;;;;;;;;;;;;;;6.47;66.11;100988.17;67998;1275;1016349;-59
2023/02/06 12:07:37;;;;;;;;;;;;;;;6.49;66.41;100983.29;67991;1275;1016423;-59
2023/02/06 12:10:39;;;;;;;;;;;;;;;6.62;64.94;100985.25;67941;1275;1016489;-60
2023/02/06 12:13:42;;;;;;;;;;;;;;;6.66;66.63;100980.17;65453;1275;6381134;-60
2023/02/06 12:16:45;;;;;;;;;;;;;;;6.78;65.42;100985.27;67959;1275;1016455;-59
2023/02/06 12:19:47;;;;;;;;;;;;;;;6.79;65.93;100986.11;68004;1275;1015872;-59
2023/02/06 12:22:49;;;;;;;;;;;;;;;6.64;65.11;100989.58;67969;1275;1016134;-60
2023/02/06 12:25:52;;;;;;;;;;;;;;;6.46;64.08;100994.95;67969;1275;1015983;-59
2023/02/06 12:28:56;;;;;;;;;;;;;;;6.07;64.55;101000.51;67946;1275;1016220;-59
2023/02/06 12:31:59;;;;;;;;;;;;;;;6.37;65.76;101002.70;67970;1275;1018692;-59
2023/02/06 12:35:02;;;;;;;;;;;;;;;6.52;64.71;101008.11;68011;1275;1019276;-60
2023/02/06 12:38:06;;;;;;;;;;;;;;;6.25;62.96;101004.19;67958;1275;1015731;-59
2023/02/06 12:41:09;;;;;;;;;;;;;;;6.15;64.89;101002.71;68000;1275;1016075;-60
2023/02/06 12:44:11;;;;;;;;;;;;;;;6.29;65.52;100997.03;68003;1275;1015780;-59
2023/02/06 12:47:14;;;;;;;;;;;;;;;6.52;65.67;100997.01;67985;1275;1016101;-59
2023/02/06 12:50:16;;;;;;;;;;;;;;;6.45;65.26;100995.50;67969;1275;1016215;-60
2023/02/06 12:53:19;;;;;;;;;;;;;;;6.48;65.69;100997.55;67959;1275;1016432;-59
2023/02/06 12:56:21;;;;;;;;;;;;;;;6.65;65.99;100998.59;68008;1275;1016445;-59
2023/02/06 12:59:23;;;;;;;;;;;;;;;6.64;64.66;101004.36;68003;1275;1016204;-59
2023/02/06 13:02:26;;;;;;;;;;;;;;;6.38;63.82;101005.30;67999;1275;1016333;-59
2023/02/06 13:05:29;;;;;;;;;;;;;;;6.57;65.38;101007.91;67945;1275;1016406;-59
2023/02/06 13:08:31;;;;;;;;;;;;;;;6.90;63.50;101009.46;67998;1275;1016381;-60
2023/02/06 13:11:34;;;;;;;;;;;;;;;6.79;63.76;101007.69;68007;1275;1016029;-59
2023/02/06 13:14:37;;;;;;;;;;;;;;;7.06;65.04;101006.52;67931;1275;1016429;-59
2023/02/06 13:17:41;;;;;;;;;;;;;;;7.12;61.46;101009.91;67955;1275;1016419;-59
2023/02/06 13:20:43;;;;;;;;;;;;;;;6.37;60.72;101014.69;68003;1275;1016218;-59
2023/02/06 13:23:46;;;;;;;;;;;;;;;5.69;61.92;101021.39;68005;1275;1016429;-59
2023/02/06 13:26:50;;;;;;;;;;;;;;;5.33;63.10;101021.39;67968;1275;1016345;-59
2023/02/06 13:29:53;;;;;;;;;;;;;;;5.57;64.54;101016.25;67966;1275;1016150;-59
2023/02/06 13:32:55;;;;;;;;;;;;;;;5.64;63.54;101014.99;67943;1275;1016072;-60
2023/02/06 13:35:58;;;;;;;;;;;;;;;5.40;63.58;101013.38;67926;1275;1016272;-59
2023/02/06 13:39:00;;;;;;;;;;;;;;;5.53;63.95;101011.23;67963;1275;1016376;-59
2023/02/06 13:42:02;;;;;;;;;;;;;;;5.80;63.28;101005.01;67934;1275;1016323;-59
2023/02/06 13:45:05;;;;;;;;;;;;;;;5.64;61.15;101008.40;67882;1275;1016412;-59
2023/02/06 13:48:07;;;;;;;;;;;;;;;5.16;61.42;101015.39;67936;1275;1016477;-59
2023/02/06 13:51:10;;;;;;;;;;;;;;;4.85;62.14;101014.80;68021;1275;1016258;-59
2023/02/06 13:54:13;;;;;;;;;;;;;;;4.68;63.59;101012.23;67962;1275;1016422;-59
2023/02/06 13:57:15;;;;;;;;;;;;;;;4.57;63.34;101016.08;67931;1275;1016457;-59
2023/02/06 14:00:18;;;;;;;;;;;;;;;4.35;63.48;101017.48;67952;1275;1016284;-59
2023/02/06 14:03:20;;;;;;;;;;;;;;;4.35;64.10;101020.23;68012;1275;1016604;-59
2023/02/06 14:06:22;;;;;;;;;;;;;;;4.25;64.02;101021.80;67999;1275;1016562;-60
2023/02/06 14:09:29;;;;;;;;;;;;;;;4.32;65.00;101018.00;67976;1275;1016209;-59
2023/02/06 14:12:32;;;;;;;;;;;;;;;4.42;65.71;101017.63;67947;1275;1015990;-59
2023/02/06 14:15:34;;;;;;;;;;;;;;;4.45;64.09;101019.19;68007;1275;1016462;-59
2023/02/06 14:18:37;;;;;;;;;;;;;;;4.36;63.71;101023.19;68006;1275;1018278;-59
2023/02/06 14:21:39;;;;;;;;;;;;;;;4.14;64.42;101024.05;67952;1275;1017044;-59
2023/02/06 14:24:42;;;;;;;;;;;;;;;4.00;65.01;101024.04;67955;1275;1016451;-59
2023/02/06 14:27:44;;;;;;;;;;;;;;;4.01;65.44;101021.95;68012;1275;1016372;-59
2023/02/06 14:30:46;;;;;;;;;;;;;;;3.82;65.22;101025.05;67975;1275;1016425;-59
2023/02/06 14:33:49;;;;;;;;;;;;;;;3.70;65.52;101022.59;68017;1275;1018394;-59
2023/02/06 14:36:51;;;;;;;;;;;;;;;3.56;66.24;101013.41;67963;1275;1016259;-59
2023/02/06 14:39:54;;;;;;;;;;;;;;;3.44;66.17;101017.33;68019;1275;1016464;-59
2023/02/06 14:43:06;;;;;;;;;;;;;;;;;;;;;
2023/02/06 14:46:11;;;;;;;;;;;;;;;3.53;66.52;101024.10;67964;1275;1016496;-59
2023/02/06 14:49:14;;;;;;;;;;;;;;;3.52;66.30;101027.05;67959;1275;1017394;-59
2023/02/06 14:52:16;;;;;;;;;;;;;;;3.35;66.22;101029.41;67996;1275;1016420;-59
2023/02/06 14:55:18;;;;;;;;;;;;;;;3.15;66.25;101023.96;68009;1275;1016107;-59
2023/02/06 14:58:21;;;;;;;;;;;;;;;2.96;66.71;101023.52;68027;1275;1016184;-59
2023/02/06 15:01:23;;;;;;;;;;;;;;;2.83;67.01;101023.11;67975;1275;1016259;-59
2023/02/06 15:04:26;;;;;;;;;;;;;;;2.84;67.34;101027.59;67940;1275;1016435;-59
2023/02/06 15:07:28;;;;;;;;;;;;;;;2.78;67.46;101027.05;68015;1275;1016258;-59
2023/02/06 15:10:31;;;;;;;;;;;;;;;2.73;67.67;101026.16;68019;1275;1016452;-59